Time;durP1;ratioP1;P1;durP2;ratioP2;P2;SDS_P1;SDS_P2;PMS_P1;PMS_P2;Temp;Humidity;BMP_temperature;BMP_pressure;BME280_temperature;BME280_humidity;BME280_pressure;Samples;Min_cycle;Max_cycle;Signal;HPM_P1;HPM_P2
2021/06/10 09:17:48;;;;;;;26.23;17.33;;;24.10;84.50;;;;;;5144852;27;20182;-71
2021/06/10 09:20:18;;;;;;;25.30;17.75;;;24.00;83.40;;;;;;5129759;27;20514;-71
2021/06/10 09:22:46;;;;;;;26.58;17.13;;;23.80;84.60;;;;;;5150592;27;20047;-71
2021/06/10 09:25:19;;;;;;;27.45;18.75;;;23.90;84.60;;;;;;5132256;27;20054;-71
2021/06/10 09:27:53;;;;;;;26.10;17.38;;;24.00;83.80;;;;;;5146257;27;20059;-72
2021/06/10 09:30:33;;;;;;;21.77;16.52;;;24.10;83.70;;;;;;5148464;27;20066;-72
2021/06/10 09:33:02;;;;;;;26.92;17.80;;;24.30;83.60;;;;;;5149465;27;20092;-71
2021/06/10 09:35:32;;;;;;;26.67;16.95;;;24.30;83.20;;;;;;5147806;27;20234;-72
2021/06/10 09:38:04;;;;;;;22.77;16.75;;;24.40;82.10;;;;;;5134331;27;20047;-72
2021/06/10 09:40:31;;;;;;;26.23;18.17;;;24.40;81.70;;;;;;5117997;27;20665;-70
2021/06/10 09:42:58;;;;;;;26.73;17.00;;;24.40;80.90;;;;;;5135800;27;20082;-71
2021/06/10 09:45:28;;;;;;;24.83;15.98;;;24.40;81.10;;;;;;5139668;27;20152;-71
2021/06/10 09:47:59;;;;;;;19.42;14.27;;;24.40;81.20;;;;;;5119455;27;20477;-71
2021/06/10 09:50:30;;;;;;;19.70;15.27;;;24.60;81.30;;;;;;5119515;27;20469;-71
2021/06/10 09:53:17;;;;;;;23.25;14.82;;;24.60;79.90;;;;;;5120420;27;20417;-72
2021/06/10 09:55:52;;;;;;;19.77;14.32;;;24.70;80.10;;;;;;5139860;27;20047;-72
2021/06/10 09:58:40;;;;;;;22.80;14.88;;;24.90;78.30;;;;;;5137512;27;20042;-71
2021/06/10 10:01:13;;;;;;;21.45;14.77;;;24.80;78.90;;;;;;5117297;27;20107;-72
2021/06/10 10:03:43;;;;;;;21.65;14.73;;;24.90;78.30;;;;;;5138988;27;20505;-72
2021/06/10 10:08:50;;;;;;;22.77;16.67;;;24.60;78.60;;;;;;5137494;27;20047;-72
2021/06/10 10:11:18;;;;;;;19.98;14.40;;;24.70;77.60;;;;;;5116415;27;20050;-72
2021/06/10 10:13:47;;;;;;;18.10;14.15;;;24.80;78.20;;;;;;5137278;27;20638;-72
2021/06/10 10:16:15;;;;;;;19.95;14.38;;;24.90;76.90;;;;;;5137914;27;20059;-72
2021/06/10 10:18:44;;;;;;;16.30;12.75;;;25.00;74.50;;;;;;5116753;27;20134;-71
2021/06/10 10:21:12;;;;;;;15.00;11.98;;;25.00;73.10;;;;;;5137675;27;20074;-71
2021/06/10 10:23:39;;;;;;;16.08;11.32;;;25.10;72.90;;;;;;5138524;27;20131;-71
2021/06/10 10:26:07;;;;;;;22.65;13.38;;;25.20;71.80;;;;;;5137120;27;20047;-72
2021/06/10 10:28:35;;;;;;;19.77;13.20;;;25.40;70.90;;;;;;5118605;27;20055;-71
2021/06/10 10:31:04;;;;;;;18.23;12.70;;;25.30;71.50;;;;;;5136880;27;20078;-71
2021/06/10 10:33:41;;;;;;;16.00;11.07;;;25.10;69.40;;;;;;5117383;27;20525;-71
2021/06/10 10:36:08;;;;;;;14.38;11.10;;;25.20;69.30;;;;;;5117016;27;20502;-70
2021/06/10 10:38:39;;;;;;;13.88;10.90;;;25.30;69.80;;;;;;5137417;27;20139;-71
2021/06/10 10:41:21;;;;;;;11.93;9.98;;;25.40;71.10;;;;;;5136021;27;20106;-71
2021/06/10 10:43:49;;;;;;;11.27;10.05;;;25.50;65.00;;;;;;5136169;27;20050;-71
2021/06/10 10:46:19;;;;;;;16.08;11.60;;;25.50;65.90;;;;;;5118251;27;20051;-71
2021/06/10 10:48:50;;;;;;;;;;;25.60;68.80;;;;;;5115624;27;20050;-71
2021/06/10 10:51:38;;;;;;;14.48;10.68;;;25.70;66.90;;;;;;5136341;27;19962;-72
2021/06/10 10:54:32;;;;;;;14.65;10.10;;;25.60;65.50;;;;;;5135210;27;20442;-72
2021/06/10 10:57:00;;;;;;;17.70;11.40;;;25.70;66.20;;;;;;5134636;27;20463;-73
2021/06/10 10:59:39;;;;;;;12.45;8.60;;;25.60;66.20;;;;;;5134535;27;20104;-73
2021/06/10 11:02:16;;;;;;;10.50;8.32;;;25.70;63.10;;;;;;5137074;27;20052;-73
2021/06/10 11:04:56;;;;;;;11.52;8.05;;;25.70;62.40;;;;;;5120636;27;20410;-73
2021/06/10 11:07:41;;;;;;;11.63;9.57;;;25.70;59.90;;;;;;5136859;27;20051;-73
2021/06/10 11:10:20;;;;;;;13.30;8.98;;;25.80;60.60;;;;;;5116449;27;20073;-73
2021/06/10 11:12:52;;;;;;;13.30;10.00;;;25.80;59.70;;;;;;5117291;27;20057;-74
2021/06/10 11:15:23;;;;;;;9.25;8.00;;;25.90;59.40;;;;;;5136683;27;20096;-73
2021/06/10 11:17:57;;;;;;;10.07;7.75;;;26.00;58.30;;;;;;5136692;27;20038;-73
2021/06/10 11:20:36;;;;;;;9.68;8.30;;;26.00;58.40;;;;;;5117148;27;20133;-73
2021/06/10 11:23:10;;;;;;;12.32;9.05;;;26.30;55.80;;;;;;5120050;27;20717;-73
2021/06/10 11:25:50;;;;;;;16.20;9.60;;;26.20;54.20;;;;;;5136995;27;20086;-73
2021/06/10 11:28:23;;;;;;;10.90;8.57;;;26.20;55.20;;;;;;5116581;27;20046;-73
2021/06/10 11:30:54;;;;;;;9.50;8.45;;;26.20;53.50;;;;;;5138816;27;20050;-74
2021/06/10 11:33:26;;;;;;;15.75;9.73;;;26.30;54.20;;;;;;5118942;27;20070;-73
2021/06/10 11:36:04;;;;;;;11.23;8.82;;;26.30;55.70;;;;;;5139625;27;20420;-73
2021/06/10 11:38:47;;;;;;;12.68;8.20;;;26.20;55.90;;;;;;5120415;27;20104;-73
2021/06/10 11:41:20;;;;;;;10.63;8.60;;;26.20;54.90;;;;;;5137608;27;20133;-73
2021/06/10 11:43:54;;;;;;;10.85;8.20;;;26.30;54.70;;;;;;5140736;27;20124;-73
2021/06/10 11:46:35;;;;;;;11.70;8.45;;;26.50;53.40;;;;;;5141274;27;20050;-76
2021/06/10 11:49:04;;;;;;;12.75;8.70;;;26.50;53.10;;;;;;5145505;27;20479;-80
2021/06/10 11:51:38;;;;;;;12.30;9.10;;;26.40;51.80;;;;;;5122560;27;20722;-81
2021/06/10 11:54:07;;;;;;;10.30;8.82;;;26.30;51.90;;;;;;5121881;27;20443;-79
2021/06/10 11:56:35;;;;;;;17.20;8.55;;;26.50;52.40;;;;;;5140755;27;20055;-81
2021/06/10 11:59:20;;;;;;;14.32;8.90;;;26.80;52.00;;;;;;5102629;27;20500;-81
2021/06/10 12:02:02;;;;;;;11.35;8.82;;;26.90;53.20;;;;;;5124222;27;20039;-80
2021/06/10 12:04:34;;;;;;;12.90;9.15;;;27.00;49.90;;;;;;5141039;27;20062;-79
2021/06/10 12:07:14;;;;;;;12.60;8.27;;;26.70;49.80;;;;;;5142789;27;20055;-79
2021/06/10 12:09:50;;;;;;;11.43;8.57;;;26.70;51.80;;;;;;5119216;27;20082;-80
2021/06/10 12:12:44;;;;;;;10.75;8.73;;;27.00;52.40;;;;;;5120180;27;20107;-79
2021/06/10 12:15:17;;;;;;;12.50;9.35;;;27.10;51.10;;;;;;5121183;27;20109;-80
2021/06/10 12:17:57;;;;;;;12.55;9.32;;;28.10;49.60;;;;;;5142884;27;20066;-79
2021/06/10 12:20:45;;;;;;;9.45;7.57;;;29.70;49.50;;;;;;5123934;27;20043;-79
2021/06/10 12:23:24;;;;;;;8.63;7.40;;;32.60;46.40;;;;;;5108375;27;20468;-79
2021/06/10 12:25:56;;;;;;;8.90;8.00;;;36.00;36.80;;;;;;5121191;27;20127;-79
2021/06/10 12:28:46;;;;;;;13.40;7.88;;;36.60;34.50;;;;;;5141633;27;20133;-80
2021/06/10 12:31:16;;;;;;;;;;;37.90;31.60;;;;;;5143101;27;20078;-79
2021/06/10 12:34:04;;;;;;;7.90;6.85;;;39.60;31.20;;;;;;5139877;27;19923;-80
2021/06/10 12:36:31;;;;;;;10.75;7.18;;;40.10;29.20;;;;;;5121842;27;20447;-79
2021/06/10 12:39:06;;;;;;;10.75;6.65;;;38.90;30.00;;;;;;5119150;27;20640;-79
2021/06/10 12:41:37;;;;;;;10.00;6.93;;;39.80;29.40;;;;;;5119994;27;20042;-78
2021/06/10 12:44:18;;;;;;;13.05;7.30;;;38.90;29.20;;;;;;5119538;27;20573;-78
2021/06/10 12:46:53;;;;;;;10.25;7.57;;;40.10;29.60;;;;;;5124155;27;20481;-79
2021/06/10 12:49:37;;;;;;;9.05;6.68;;;39.70;29.40;;;;;;5120033;27;20053;-79
2021/06/10 12:52:14;;;;;;;8.95;6.57;;;38.30;30.40;;;;;;5138973;27;20112;-78
2021/06/10 12:54:43;;;;;;;7.70;6.53;;;37.90;32.10;;;;;;5142386;27;20172;-79
2021/06/10 12:57:21;;;;;;;7.20;6.50;;;35.90;33.80;;;;;;5141512;27;20095;-79
2021/06/10 12:59:56;;;;;;;7.57;6.78;;;34.40;35.80;;;;;;5121828;27;20047;-79
2021/06/10 13:02:25;;;;;;;8.40;6.40;;;34.50;36.60;;;;;;5123687;27;20389;-79
2021/06/10 13:04:59;;;;;;;12.50;7.35;;;34.70;36.70;;;;;;5122234;27;20046;-79
2021/06/10 13:07:35;;;;;;;7.97;6.68;;;34.30;35.40;;;;;;5141793;27;20189;-80
2021/06/10 13:10:09;;;;;;;9.93;6.38;;;33.70;37.50;;;;;;5143623;27;20481;-79
2021/06/10 13:12:39;;;;;;;8.40;6.53;;;33.80;36.00;;;;;;5125262;27;20103;-79
2021/06/10 13:15:16;;;;;;;8.32;6.13;;;34.00;36.80;;;;;;5143132;27;20155;-79
2021/06/10 13:17:49;;;;;;;7.85;6.88;;;33.70;36.40;;;;;;5143380;27;20070;-79
2021/06/10 13:20:56;;;;;;;8.35;6.50;;;33.40;36.80;;;;;;5121988;27;20047;-79
2021/06/10 13:23:26;;;;;;;7.60;6.85;;;33.30;38.10;;;;;;5127514;27;20104;-79
2021/06/10 13:26:15;;;;;;;7.32;6.15;;;33.40;36.00;;;;;;5121054;27;20092;-78
2021/06/10 13:28:45;;;;;;;6.85;6.15;;;33.20;36.70;;;;;;5118809;27;20089;-78
2021/06/10 13:31:40;;;;;;;7.80;6.20;;;33.00;38.60;;;;;;5141653;27;20054;-78
2021/06/10 13:34:16;;;;;;;8.15;5.72;;;32.50;38.10;;;;;;5137322;27;20134;-79
2021/06/10 13:36:52;;;;;;;7.50;6.05;;;32.00;36.90;;;;;;5137685;27;20123;-78
2021/06/10 13:39:20;;;;;;;9.05;6.43;;;31.80;38.80;;;;;;5138237;27;20497;-77
2021/06/10 13:41:48;;;;;;;9.43;7.10;;;32.00;38.00;;;;;;5139818;27;20070;-79
2021/06/10 13:44:16;;;;;;;10.95;6.90;;;31.70;38.20;;;;;;5140022;27;20050;-77
2021/06/10 13:46:43;;;;;;;10.15;6.30;;;31.50;39.70;;;;;;5121259;27;20131;-79
2021/06/10 13:49:10;;;;;;;8.20;6.45;;;31.30;38.40;;;;;;5121420;27;20058;-80
2021/06/10 13:51:40;;;;;;;10.02;5.72;;;30.70;39.30;;;;;;5120135;27;20055;-80
2021/06/10 13:54:07;;;;;;;7.15;5.55;;;30.60;39.30;;;;;;5117804;27;20145;-79
2021/06/10 13:56:34;;;;;;;10.40;5.97;;;30.50;38.70;;;;;;5120390;27;20043;-79
2021/06/10 13:59:02;;;;;;;8.75;6.30;;;30.60;41.10;;;;;;5124481;27;20415;-79
2021/06/10 14:01:30;;;;;;;13.73;6.72;;;30.30;39.40;;;;;;5123393;27;20082;-80
2021/06/10 14:03:57;;;;;;;8.23;5.88;;;30.20;40.90;;;;;;5119447;27;20076;-79
2021/06/10 14:06:28;;;;;;;6.80;5.97;;;29.90;41.40;;;;;;5119498;27;20047;-79
2021/06/10 14:08:56;;;;;;;9.73;5.30;;;29.80;42.40;;;;;;5120885;27;20062;-71
2021/06/10 14:11:23;;;;;;;6.30;5.28;;;29.70;39.20;;;;;;5136555;27;20058;-71
2021/06/10 14:13:52;;;;;;;7.00;5.05;;;29.20;39.50;;;;;;5117642;27;20047;-71
2021/06/10 14:16:21;;;;;;;;;;;29.10;38.80;;;;;;5117859;27;20046;-72
2021/06/10 14:18:50;;;;;;;8.05;4.68;;;29.10;41.10;;;;;;5136182;27;19935;-71
2021/06/10 14:21:22;;;;;;;8.10;4.80;;;29.00;39.40;;;;;;5137555;27;20043;-71
2021/06/10 14:23:53;;;;;;;6.70;5.53;;;28.90;39.70;;;;;;5138348;27;20039;-71
2021/06/10 14:26:22;;;;;;;7.93;5.00;;;28.90;40.60;;;;;;5137635;27;20062;-71
2021/06/10 14:28:51;;;;;;;6.40;5.38;;;29.00;40.90;;;;;;5124439;27;20126;-71
2021/06/10 14:34:07;;;;;;;7.65;6.15;;;28.90;40.40;;;;;;5135927;27;20109;-71
2021/06/10 14:36:36;;;;;;;8.57;5.65;;;29.00;41.50;;;;;;5138590;27;20078;-71
2021/06/10 14:39:04;;;;;;;6.53;5.80;;;29.10;40.70;;;;;;5135882;27;20550;-71
2021/06/10 14:41:31;;;;;;;8.10;5.47;;;29.10;42.70;;;;;;5136380;27;20464;-70
2021/06/10 14:43:58;;;;;;;9.93;5.25;;;29.10;40.80;;;;;;5138424;27;20513;-72
2021/06/10 14:46:25;;;;;;;6.22;5.50;;;28.90;43.10;;;;;;5135182;27;20058;-71
2021/06/10 14:49:12;;;;;;;7.25;5.35;;;29.00;42.50;;;;;;5124517;27;20066;-70
2021/06/10 14:51:39;;;;;;;8.95;5.65;;;29.10;43.60;;;;;;5135923;27;20137;-71
2021/06/10 14:54:06;;;;;;;9.30;5.25;;;29.10;41.80;;;;;;5116927;27;20129;-72
2021/06/10 14:56:33;;;;;;;8.85;5.60;;;29.00;41.60;;;;;;5136496;27;20725;-71
2021/06/10 14:59:00;;;;;;;7.82;5.75;;;28.80;40.60;;;;;;5138583;27;20092;-71
2021/06/10 15:01:27;;;;;;;7.13;5.97;;;28.70;41.90;;;;;;5116525;27;20964;-71
2021/06/10 15:03:53;;;;;;;6.28;5.47;;;28.60;41.60;;;;;;5137592;27;20047;-71
2021/06/10 15:06:20;;;;;;;9.25;5.90;;;28.70;41.00;;;;;;5116181;27;20542;-71
2021/06/10 15:08:50;;;;;;;6.07;5.20;;;28.60;40.50;;;;;;5137931;27;20059;-71
2021/06/10 15:11:18;;;;;;;5.97;5.38;;;28.50;40.90;;;;;;5117269;27;20059;-72
2021/06/10 15:13:49;;;;;;;7.60;5.10;;;28.70;40.90;;;;;;5116605;27;20051;-70
2021/06/10 15:16:18;;;;;;;8.85;5.80;;;28.60;41.00;;;;;;5117156;27;20050;-72
2021/06/10 15:18:46;;;;;;;7.65;5.20;;;28.70;42.50;;;;;;5116760;27;20046;-70
2021/06/10 15:21:14;;;;;;;7.85;4.95;;;28.70;41.90;;;;;;5138650;27;20411;-71
2021/06/10 15:23:43;;;;;;;8.05;5.28;;;28.70;40.70;;;;;;5137363;27;20497;-72
2021/06/10 15:26:13;;;;;;;8.43;5.82;;;28.60;42.80;;;;;;5134557;27;20165;-71
2021/06/10 15:28:40;;;;;;;6.05;5.30;;;28.60;42.90;;;;;;5135594;27;20494;-70
2021/06/10 15:31:08;;;;;;;7.47;5.80;;;28.70;41.90;;;;;;5137006;27;20051;-71
2021/06/10 15:33:35;;;;;;;7.97;5.35;;;28.60;41.30;;;;;;5136842;27;20051;-69
2021/06/10 15:36:03;;;;;;;11.13;5.65;;;28.50;41.90;;;;;;5135314;27;20600;-69
2021/06/10 15:38:30;;;;;;;6.70;5.38;;;28.60;41.70;;;;;;5118685;27;20078;-71
2021/06/10 15:41:06;;;;;;;7.22;5.75;;;28.50;43.10;;;;;;5143999;27;20039;-71
2021/06/10 15:43:33;;;;;;;8.52;5.95;;;28.60;41.10;;;;;;5147331;27;20071;-70
2021/06/10 15:46:01;;;;;;;8.32;6.68;;;28.60;41.30;;;;;;5144368;27;20068;-70
2021/06/10 15:48:28;;;;;;;10.85;6.72;;;28.30;43.20;;;;;;5148682;27;20099;-71
2021/06/10 15:50:56;;;;;;;7.07;6.38;;;28.30;43.00;;;;;;5129549;27;20344;-70
2021/06/10 15:53:23;;;;;;;8.65;6.45;;;28.30;43.00;;;;;;5145639;27;20097;-71
2021/06/10 15:55:49;;;;;;;7.55;6.15;;;28.30;43.00;;;;;;5149904;27;20070;-70
2021/06/10 15:58:16;;;;;;;10.95;6.72;;;28.40;43.80;;;;;;5145319;27;20142;-70
2021/06/10 16:00:45;;;;;;;7.72;6.32;;;28.30;43.60;;;;;;5146838;27;20046;-71
2021/06/10 16:03:12;;;;;;;13.05;6.40;;;28.20;43.90;;;;;;5150998;27;20122;-69
2021/06/10 16:05:40;;;;;;;8.88;6.85;;;28.30;45.00;;;;;;5145196;27;20050;-71
2021/06/10 16:08:10;;;;;;;9.52;6.65;;;28.30;45.50;;;;;;5146048;27;20042;-70
2021/06/10 16:10:37;;;;;;;8.68;7.45;;;28.30;44.00;;;;;;5127134;27;20046;-69
2021/06/10 16:13:05;;;;;;;7.05;6.20;;;28.30;43.80;;;;;;5148189;27;20544;-70
2021/06/10 16:15:32;;;;;;;7.65;6.35;;;28.30;43.30;;;;;;5146902;27;20081;-71
2021/06/10 16:18:00;;;;;;;8.82;6.90;;;28.30;44.90;;;;;;5144155;27;20066;-70
2021/06/10 16:20:27;;;;;;;11.00;7.55;;;28.30;45.10;;;;;;5129108;27;20082;-69
2021/06/10 16:22:54;;;;;;;6.70;5.95;;;28.30;43.10;;;;;;5143904;27;20047;-69
2021/06/10 16:25:22;;;;;;;7.80;5.65;;;28.40;43.90;;;;;;5122725;27;20046;-70
2021/06/10 16:27:49;;;;;;;7.22;5.90;;;28.50;43.00;;;;;;5153636;27;20074;-70
2021/06/10 16:30:24;;;;;;;15.35;6.28;;;28.40;42.90;;;;;;5150941;27;20070;-71
2021/06/10 16:32:54;;;;;;;6.55;5.95;;;28.20;43.70;;;;;;5146476;27;20049;-70
2021/06/10 16:35:23;;;;;;;7.57;5.15;;;28.00;44.40;;;;;;5151650;27;20111;-71
2021/06/10 16:37:52;;;;;;;8.82;5.03;;;28.10;41.80;;;;;;5132383;27;20126;-69
2021/06/10 16:40:20;;;;;;;;;;;28.10;42.20;;;;;;5132648;27;20043;-69
2021/06/10 16:42:47;;;;;;;8.70;5.65;;;28.10;44.40;;;;;;5151763;27;19958;-70
2021/06/10 16:45:16;;;;;;;7.63;6.45;;;28.00;43.10;;;;;;5153134;27;20047;-71
2021/06/10 16:47:46;;;;;;;9.32;6.57;;;28.00;44.70;;;;;;5145720;27;20050;-70
2021/06/10 16:50:18;;;;;;;11.20;8.13;;;28.00;45.40;;;;;;5149435;27;20071;-70
2021/06/10 16:52:45;;;;;;;12.98;7.38;;;28.00;43.50;;;;;;5150859;27;20039;-70
2021/06/10 16:55:13;;;;;;;7.20;6.22;;;28.10;44.20;;;;;;5129703;27;20518;-70
2021/06/10 16:57:40;;;;;;;8.93;6.43;;;27.80;44.20;;;;;;5152437;27;20082;-71
2021/06/10 17:00:17;;;;;;;10.95;6.50;;;27.80;43.40;;;;;;5149402;27;20147;-70
2021/06/10 17:05:22;;;;;;;6.43;5.82;;;27.60;45.30;;;;;;5151956;27;20095;-69
2021/06/10 17:07:49;;;;;;;24.08;15.05;;;27.60;44.80;;;;;;5151037;27;20073;-70
2021/06/10 17:10:17;;;;;;;9.00;5.90;;;27.70;43.50;;;;;;5148860;27;20070;-71
2021/06/10 17:12:44;;;;;;;9.95;7.85;;;27.50;45.60;;;;;;5139792;27;20070;-71
2021/06/10 17:15:12;;;;;;;9.40;7.28;;;27.60;46.00;;;;;;5152371;27;20047;-69
2021/06/10 17:17:40;;;;;;;6.10;5.43;;;27.70;44.50;;;;;;5142809;27;20466;-70
2021/06/10 17:20:18;;;;;;;9.35;6.15;;;27.70;43.70;;;;;;5151993;27;20158;-70
2021/06/10 17:22:46;;;;;;;6.43;5.72;;;27.70;43.60;;;;;;5150457;27;20054;-70
2021/06/10 17:25:14;;;;;;;8.23;6.00;;;27.70;43.80;;;;;;5149172;27;20721;-73
2021/06/10 17:27:41;;;;;;;9.88;5.60;;;27.60;43.50;;;;;;5117165;27;20104;-70
2021/06/10 17:30:12;;;;;;;8.45;5.70;;;27.50;43.10;;;;;;5130963;27;20733;-71
2021/06/10 17:32:43;;;;;;;9.68;5.72;;;27.40;43.30;;;;;;5122959;27;20484;-70
2021/06/10 17:35:11;;;;;;;9.88;5.63;;;27.40;43.90;;;;;;5141230;27;20074;-70
2021/06/10 17:37:38;;;;;;;7.57;6.00;;;27.40;43.80;;;;;;5150489;27;20055;-71
2021/06/10 17:40:09;;;;;;;8.75;5.72;;;27.30;45.60;;;;;;5147043;27;20132;-71
2021/06/10 17:42:40;;;;;;;8.57;5.70;;;27.20;43.30;;;;;;5138188;27;20051;-70
2021/06/10 17:45:12;;;;;;;8.15;5.47;;;27.30;41.60;;;;;;5148712;27;20549;-71
2021/06/10 17:47:39;;;;;;;7.78;5.78;;;27.20;42.20;;;;;;5145904;27;20127;-71
2021/06/10 17:50:07;;;;;;;7.13;6.10;;;27.30;42.20;;;;;;5151097;27;20107;-70
2021/06/10 17:52:35;;;;;;;8.50;6.22;;;27.20;42.60;;;;;;5148838;27;20050;-70
2021/06/10 17:55:03;;;;;;;7.85;5.95;;;27.10;44.50;;;;;;5149103;27;20046;-71
2021/06/10 17:57:33;;;;;;;6.25;5.43;;;27.10;44.40;;;;;;5133943;27;20126;-71
2021/06/10 18:00:00;;;;;;;10.82;5.88;;;27.00;45.90;;;;;;5147713;27;20134;-70
2021/06/10 18:02:29;;;;;;;9.98;5.30;;;27.00;44.00;;;;;;5145872;27;20152;-70
2021/06/10 18:04:56;;;;;;;;;;;27.10;44.20;;;;;;5141243;27;20089;-72
2021/06/10 18:07:23;;;;;;;7.30;4.75;;;27.00;43.40;;;;;;5129408;27;19919;-69
2021/06/10 18:09:50;;;;;;;7.45;6.00;;;27.00;43.00;;;;;;5149052;27;20054;-69
2021/06/10 18:12:18;;;;;;;6.88;5.40;;;26.90;46.30;;;;;;5151848;27;20645;-69
2021/06/10 18:14:45;;;;;;;7.00;4.95;;;26.80;44.00;;;;;;5146823;27;20466;-71
2021/06/10 18:17:12;;;;;;;6.25;4.95;;;26.80;43.80;;;;;;5146000;27;20045;-71
2021/06/10 18:19:41;;;;;;;6.18;4.22;;;26.80;45.60;;;;;;5151778;27;20509;-70
2021/06/10 18:22:08;;;;;;;5.88;4.90;;;26.70;43.60;;;;;;5147121;27;20482;-70
2021/06/10 18:24:34;;;;;;;5.88;4.30;;;26.70;43.30;;;;;;5148986;27;20101;-71
2021/06/10 18:27:02;;;;;;;4.82;3.75;;;26.80;40.80;;;;;;5130809;27;20489;-71
2021/06/10 18:29:28;;;;;;;6.15;4.28;;;26.70;41.30;;;;;;5144443;27;20095;-70
2021/06/10 18:31:55;;;;;;;6.65;4.40;;;26.70;41.60;;;;;;5143929;27;20133;-70
2021/06/10 18:34:22;;;;;;;5.05;4.50;;;26.60;42.30;;;;;;5132147;27;20047;-70
2021/06/10 18:36:51;;;;;;;5.35;4.65;;;26.60;42.80;;;;;;5145354;27;20121;-71
2021/06/10 18:39:18;;;;;;;6.53;4.70;;;26.50;44.30;;;;;;5129260;27;20104;-70
2021/06/10 18:41:46;;;;;;;5.38;4.82;;;26.50;44.70;;;;;;5131163;27;20129;-72
2021/06/10 18:44:13;;;;;;;6.35;4.68;;;26.50;44.60;;;;;;5142741;27;20493;-70
2021/06/10 18:46:39;;;;;;;5.55;4.68;;;26.40;45.10;;;;;;5145909;27;20105;-70
2021/06/10 18:49:09;;;;;;;7.75;5.35;;;26.30;45.70;;;;;;5136887;27;20497;-71
2021/06/10 18:51:36;;;;;;;10.18;4.57;;;26.30;45.60;;;;;;5133749;27;20709;-71
2021/06/10 18:54:03;;;;;;;10.15;6.40;;;26.30;45.50;;;;;;5134320;27;20078;-72
2021/06/10 18:56:30;;;;;;;7.43;4.85;;;26.30;45.50;;;;;;5136440;27;20158;-69
2021/06/10 18:58:58;;;;;;;6.20;4.97;;;26.20;45.70;;;;;;5117830;27;20578;-70
2021/06/10 19:01:25;;;;;;;11.98;5.82;;;26.20;45.80;;;;;;5136714;27;20141;-71
2021/06/10 19:03:55;;;;;;;;;;;26.10;46.00;;;;;;5116744;27;20046;-71
2021/06/10 19:06:22;;;;;;;6.88;4.57;;;26.10;45.70;;;;;;5134527;27;20334;-70
2021/06/10 19:08:49;;;;;;;5.63;4.03;;;26.00;46.20;;;;;;5136109;27;20406;-71
2021/06/10 19:11:16;;;;;;;5.63;4.18;;;26.00;46.00;;;;;;5136985;27;20047;-69
2021/06/10 19:13:44;;;;;;;5.93;4.20;;;25.90;46.50;;;;;;5116902;27;20488;-71
2021/06/10 19:16:11;;;;;;;6.85;4.38;;;25.90;45.80;;;;;;5135188;27;20117;-70
2021/06/10 19:18:38;;;;;;;7.97;4.38;;;25.80;46.10;;;;;;5132993;27;20080;-70
2021/06/10 19:21:06;;;;;;;8.80;4.55;;;25.70;46.40;;;;;;5138274;27;20659;-72
2021/06/10 19:23:38;;;;;;;5.78;4.20;;;25.70;46.00;;;;;;5134943;27;20100;-71
2021/06/10 19:26:10;;;;;;;5.80;4.20;;;25.70;45.70;;;;;;5136599;27;20783;-70
2021/06/10 19:28:40;;;;;;;6.35;4.32;;;25.70;45.40;;;;;;5116687;27;20504;-71
2021/06/10 19:31:07;;;;;;;9.10;4.60;;;25.60;46.10;;;;;;5116014;27;20542;-71
2021/06/10 19:33:47;;;;;;;11.07;4.13;;;25.50;45.80;;;;;;5118974;27;20107;-70
2021/06/10 19:36:14;;;;;;;8.52;4.43;;;25.50;45.80;;;;;;5115927;27;20213;-72
2021/06/10 19:38:41;;;;;;;4.85;3.92;;;25.50;45.50;;;;;;5135848;27;20481;-70
2021/06/10 19:41:09;;;;;;;7.25;4.00;;;25.50;45.50;;;;;;5137753;27;20647;-69
2021/06/10 19:43:36;;;;;;;12.25;6.25;;;25.40;45.60;;;;;;5116986;27;20055;-72
2021/06/10 19:46:03;;;;;;;10.55;4.40;;;25.40;45.30;;;;;;5135937;27;20043;-70
2021/06/10 19:48:33;;;;;;;8.35;4.40;;;25.40;45.50;;;;;;5134274;27;20111;-71
2021/06/10 19:51:03;;;;;;;6.78;4.38;;;25.20;46.50;;;;;;5136933;27;20051;-70
2021/06/10 19:53:38;;;;;;;5.93;4.22;;;25.30;45.50;;;;;;5141353;27;20404;-71
2021/06/10 19:56:05;;;;;;;6.13;4.40;;;25.10;45.80;;;;;;5120784;27;20046;-70
2021/06/10 19:58:32;;;;;;;5.80;3.90;;;25.10;46.00;;;;;;5139581;27;20633;-71
2021/06/10 20:00:58;;;;;;;7.60;4.38;;;25.00;46.40;;;;;;5120336;27;20078;-71
2021/06/10 20:03:26;;;;;;;6.95;4.70;;;25.00;46.50;;;;;;5139789;27;20055;-70
2021/06/10 20:05:52;;;;;;;8.38;4.10;;;25.10;47.20;;;;;;5141205;27;20105;-71
2021/06/10 20:08:19;;;;;;;6.90;4.13;;;25.00;46.70;;;;;;5120968;27;20046;-71
2021/06/10 20:10:46;;;;;;;8.35;4.75;;;25.00;47.00;;;;;;5139132;27;20059;-71
2021/06/10 20:13:16;;;;;;;7.03;4.57;;;24.90;47.50;;;;;;5133672;27;20050;-72
2021/06/10 20:15:45;;;;;;;7.45;4.20;;;24.90;47.10;;;;;;5116118;27;20042;-71
2021/06/10 20:18:12;;;;;;;12.88;7.93;;;24.90;47.20;;;;;;5131555;27;20083;-71
2021/06/10 20:20:39;;;;;;;12.73;6.60;;;24.90;47.20;;;;;;5132214;27;20106;-71
2021/06/10 20:23:06;;;;;;;6.25;4.07;;;24.80;48.00;;;;;;5116679;27;20050;-72
2021/06/10 20:25:33;;;;;;;6.57;4.57;;;24.80;47.20;;;;;;5132021;27;20039;-70
2021/06/10 20:30:46;;;;;;;12.25;7.53;;;24.70;47.50;;;;;;5130648;27;20129;-71
2021/06/10 20:33:16;;;;;;;5.53;4.22;;;24.70;47.30;;;;;;5131560;27;20119;-70
2021/06/10 20:35:43;;;;;;;8.23;5.82;;;24.70;47.30;;;;;;5104057;27;20462;-70
2021/06/10 20:38:10;;;;;;;23.25;13.60;;;24.60;47.50;;;;;;5114265;27;20162;-71
2021/06/10 20:40:39;;;;;;;7.47;4.88;;;24.60;48.00;;;;;;5133528;27;21542;-70
2021/06/10 20:43:07;;;;;;;7.60;4.00;;;24.60;47.50;;;;;;5119605;27;20043;-69
2021/06/10 20:45:39;;;;;;;5.22;3.95;;;24.50;47.30;;;;;;5132874;27;20382;-70
2021/06/10 20:48:08;;;;;;;7.35;4.35;;;24.50;47.60;;;;;;5114502;27;20051;-71
2021/06/10 20:50:35;;;;;;;9.75;3.88;;;24.50;47.70;;;;;;5118872;27;20584;-70
2021/06/10 20:53:02;;;;;;;6.65;3.78;;;24.40;48.20;;;;;;5114500;27;20275;-69
2021/06/10 20:55:29;;;;;;;7.00;4.03;;;24.30;47.60;;;;;;5130780;27;20145;-73
2021/06/10 20:57:56;;;;;;;11.05;6.05;;;24.30;48.60;;;;;;5132916;27;20081;-70
2021/06/10 21:00:23;;;;;;;7.13;4.43;;;24.30;47.80;;;;;;5118005;27;20112;-69
2021/06/10 21:02:50;;;;;;;8.77;4.97;;;24.30;48.30;;;;;;5129965;27;20049;-70
2021/06/10 21:05:17;;;;;;;6.05;4.50;;;24.30;48.00;;;;;;5130682;27;20412;-69
2021/06/10 21:07:44;;;;;;;6.70;4.50;;;24.20;48.50;;;;;;5132783;27;20149;-70
2021/06/10 21:10:12;;;;;;;10.55;5.95;;;24.20;48.80;;;;;;5113675;27;20054;-70
2021/06/10 21:12:40;;;;;;;7.65;4.22;;;24.20;48.90;;;;;;5113527;27;20173;-70
2021/06/10 21:15:17;;;;;;;7.05;4.60;;;24.10;50.60;;;;;;5117418;27;20090;-71
2021/06/10 21:17:44;;;;;;;10.10;4.90;;;24.10;49.70;;;;;;5132669;27;20130;-68
2021/06/10 21:20:11;;;;;;;5.65;4.65;;;24.00;50.20;;;;;;5113279;27;20078;-70
2021/06/10 21:22:39;;;;;;;8.63;4.78;;;24.00;50.40;;;;;;5132457;27;20516;-70
2021/06/10 21:25:07;;;;;;;6.15;5.22;;;23.90;51.80;;;;;;5132606;27;20580;-70
2021/06/10 21:27:34;;;;;;;6.25;4.65;;;23.80;52.20;;;;;;5132481;27;20054;-70
2021/06/10 21:30:02;;;;;;;7.55;4.97;;;23.70;52.90;;;;;;5131948;27;20442;-70
2021/06/10 21:32:29;;;;;;;7.25;4.95;;;23.70;53.00;;;;;;5113845;27;20129;-69
2021/06/10 21:34:59;;;;;;;6.93;5.20;;;23.60;52.50;;;;;;5133664;27;20130;-70
2021/06/10 21:37:31;;;;;;;7.85;5.28;;;23.70;52.00;;;;;;5132266;27;20421;-70
2021/06/10 21:40:02;;;;;;;8.18;5.18;;;23.60;52.10;;;;;;5113091;27;20362;-69
2021/06/10 21:42:29;;;;;;;7.93;5.70;;;23.60;54.00;;;;;;5133178;27;20506;-70
2021/06/10 21:44:56;;;;;;;9.55;6.35;;;23.60;52.60;;;;;;5131871;27;20089;-70
2021/06/10 21:47:25;;;;;;;9.23;5.95;;;23.60;53.30;;;;;;5132844;27;20116;-73
2021/06/10 21:49:53;;;;;;;10.93;5.95;;;23.50;53.60;;;;;;5132413;27;20157;-73
2021/06/10 21:52:20;;;;;;;12.13;7.97;;;23.50;54.00;;;;;;5131454;27;20138;-72
2021/06/10 21:54:47;;;;;;;10.00;6.57;;;23.50;54.60;;;;;;5133274;27;21006;-72
2021/06/10 21:57:17;;;;;;;10.63;6.00;;;23.50;55.40;;;;;;5132027;27;20054;-72
2021/06/10 21:59:44;;;;;;;8.07;5.97;;;23.40;56.40;;;;;;5117783;27;20493;-72
2021/06/10 22:02:11;;;;;;;10.60;6.00;;;23.30;56.80;;;;;;5111890;27;20051;-72
2021/06/10 22:04:38;;;;;;;6.97;6.00;;;23.20;57.10;;;;;;5133800;27;21083;-71
2021/06/10 22:07:06;;;;;;;10.38;6.78;;;23.20;57.80;;;;;;5118154;27;20043;-71
2021/06/10 22:09:34;;;;;;;9.65;6.88;;;23.20;58.20;;;;;;5131426;27;20050;-73
2021/06/10 22:12:01;;;;;;;9.75;6.70;;;23.20;58.20;;;;;;5130952;27;20515;-71
2021/06/10 22:14:28;;;;;;;10.50;6.38;;;23.20;58.70;;;;;;5131699;27;20490;-72
2021/06/10 22:16:56;;;;;;;11.02;6.80;;;23.20;59.30;;;;;;5132305;27;20053;-71
2021/06/10 22:19:22;;;;;;;9.30;6.60;;;23.10;59.50;;;;;;5112166;27;21408;-70
2021/06/10 22:21:49;;;;;;;8.85;7.15;;;23.10;59.60;;;;;;5130874;27;20058;-71
2021/06/10 22:24:16;;;;;;;9.70;7.63;;;23.00;60.40;;;;;;5131781;27;20126;-71
2021/06/10 22:26:43;;;;;;;9.43;7.40;;;22.90;60.70;;;;;;5130973;27;20580;-71